createdAt,value
2019-03-26T00:02:18.825Z,101051.80
2019-03-26T00:04:48.715Z,101051.39
2019-03-26T00:07:18.797Z,101058.88
2019-03-26T00:09:48.664Z,101052.30
2019-03-26T00:12:18.560Z,101055.25
2019-03-26T00:14:48.436Z,101056.91
2019-03-26T00:17:18.647Z,101052.09
2019-03-26T00:19:48.520Z,101057.72
2019-03-26T00:22:18.676Z,101056.03
2019-03-26T00:24:48.548Z,101051.67
2019-03-26T00:27:18.623Z,101056.91
2019-03-26T00:29:48.511Z,101059.17
2019-03-26T00:32:18.508Z,101057.86
2019-03-26T00:34:48.393Z,101061.38
2019-03-26T00:37:18.364Z,101058.97
2019-03-26T00:39:48.438Z,101058.61
2019-03-26T00:42:18.306Z,101051.77
2019-03-26T00:45:07.063Z,101041.11
2019-03-26T00:47:37.600Z,101041.11
2019-03-26T00:50:08.012Z,101041.67
2019-03-26T00:52:38.121Z,101051.71
2019-03-26T00:55:47.478Z,101054.42
2019-03-26T00:58:17.574Z,101066.61
2019-03-26T01:00:47.762Z,101059.30
2019-03-26T01:03:17.830Z,101065.22
2019-03-26T01:05:47.846Z,101055.90
2019-03-26T01:08:18.029Z,101048.42
2019-03-26T01:10:48.359Z,101052.58
2019-03-26T01:13:18.253Z,101041.06
2019-03-26T01:15:48.632Z,101038.39
2019-03-26T01:18:18.528Z,100976.06
2019-03-26T01:20:48.894Z,101044.13
2019-03-26T01:23:18.817Z,101036.33
2019-03-26T01:25:48.802Z,101032.50
2019-03-26T01:28:18.694Z,101030.35
2019-03-26T01:30:48.632Z,101030.44
2019-03-26T01:33:18.531Z,101023.44
2019-03-26T01:35:48.394Z,101034.59
2019-03-26T01:38:18.563Z,101025.82
2019-03-26T01:40:48.431Z,101023.18
2019-03-26T01:43:18.637Z,101021.88
2019-03-26T01:45:48.555Z,101024.42
2019-03-26T01:48:18.823Z,101017.95
2019-03-26T01:50:48.970Z,101021.81
2019-03-26T01:53:20.345Z,101015.19
2019-03-26T01:55:50.624Z,101030.09
2019-03-26T01:58:20.487Z,101037.37
2019-03-26T02:00:50.534Z,101027.48
2019-03-26T02:03:20.464Z,101032.18
2019-03-26T02:05:50.736Z,101036.20
2019-03-26T02:08:20.611Z,101031.50
2019-03-26T02:10:50.672Z,101046.09
2019-03-26T02:13:20.602Z,101039.84
2019-03-26T02:15:50.698Z,101038.09
2019-03-26T02:18:20.588Z,101043.16
2019-03-26T02:20:50.649Z,101038.91
2019-03-26T02:23:20.537Z,101038.13
2019-03-26T02:25:50.500Z,101034.73
2019-03-26T02:28:20.560Z,101032.37
2019-03-26T02:30:50.572Z,101035.32
2019-03-26T02:33:20.703Z,101026.45
2019-03-26T02:35:50.548Z,101029.90
2019-03-26T02:38:20.788Z,101027.28
2019-03-26T02:40:50.651Z,101029.06
2019-03-26T02:43:21.033Z,101030.09
2019-03-26T02:45:50.910Z,101031.61
2019-03-26T02:48:21.024Z,101035.46
2019-03-26T02:50:50.995Z,101030.61
2019-03-26T02:53:39.671Z,101022.33
2019-03-26T02:56:09.563Z,101002.11
2019-03-26T02:58:39.531Z,101011.56
2019-03-26T03:01:09.392Z,101017.30
2019-03-26T03:03:39.486Z,101023.86
2019-03-26T03:06:09.328Z,101018.67
2019-03-26T03:08:39.972Z,101025.17
2019-03-26T03:11:09.840Z,101019.57
2019-03-26T03:13:40.005Z,101034.32
2019-03-26T03:16:09.882Z,100974.98
2019-03-26T03:18:39.860Z,101049.44
2019-03-26T03:21:09.756Z,101050.75
2019-03-26T03:23:39.761Z,101055.01
2019-03-26T03:26:09.664Z,101062.85
2019-03-26T03:28:39.549Z,101064.59
2019-03-26T03:31:09.641Z,101058.13
2019-03-26T03:33:39.564Z,101062.08
2019-03-26T03:36:09.622Z,101062.98
2019-03-26T03:38:41.349Z,101072.56
2019-03-26T03:41:11.380Z,101075.99
2019-03-26T03:43:41.256Z,101071.27
2019-03-26T03:46:11.352Z,101072.03
2019-03-26T03:48:41.615Z,101042.97
2019-03-26T03:51:31.719Z,101054.94
2019-03-26T03:54:01.755Z,101045.02
2019-03-26T03:56:52.103Z,101039.86
2019-03-26T03:59:42.850Z,101046.83
2019-03-26T04:02:12.944Z,101051.66
2019-03-26T04:04:42.838Z,101053.36
2019-03-26T04:07:12.827Z,101077.73
2019-03-26T04:09:42.746Z,101069.92
2019-03-26T04:12:12.652Z,101080.28
2019-03-26T04:14:42.742Z,101072.00
2019-03-26T04:17:12.595Z,101067.68
2019-03-26T04:19:42.699Z,101059.50
2019-03-26T04:22:12.579Z,101069.11
2019-03-26T04:24:42.679Z,101062.23
2019-03-26T04:30:01.394Z,101073.23
2019-03-26T04:32:31.481Z,101074.25
2019-03-26T04:35:01.361Z,101094.20
2019-03-26T04:37:31.269Z,101092.08
2019-03-26T04:40:01.157Z,101092.64
2019-03-26T04:42:31.271Z,101100.51
2019-03-26T04:45:01.195Z,101093.13
2019-03-26T04:47:31.061Z,101081.43
2019-03-26T04:50:19.684Z,101093.59
2019-03-26T04:52:49.574Z,101088.87
2019-03-26T04:55:19.432Z,101098.02
2019-03-26T04:57:49.450Z,101097.61
2019-03-26T05:00:39.796Z,101098.97
2019-03-26T05:03:09.668Z,101105.91
2019-03-26T05:05:39.944Z,101094.93
2019-03-26T05:08:09.846Z,101100.22
2019-03-26T05:10:40.144Z,101101.96
2019-03-26T05:13:10.003Z,101102.83
2019-03-26T05:15:40.182Z,101104.95
2019-03-26T05:18:10.199Z,101090.75
2019-03-26T05:20:40.046Z,101103.59
2019-03-26T05:23:10.185Z,101104.43
2019-03-26T05:25:40.056Z,101102.63
2019-03-26T05:28:09.957Z,101105.23
2019-03-26T05:30:39.838Z,101108.29
2019-03-26T05:33:09.844Z,101110.44
2019-03-26T05:35:39.748Z,101106.95
2019-03-26T05:38:09.711Z,101112.16
2019-03-26T05:40:39.594Z,101106.42
2019-03-26T05:43:09.595Z,101106.86
2019-03-26T05:45:39.525Z,101118.51
2019-03-26T05:48:09.726Z,101119.34
2019-03-26T05:50:39.603Z,101128.06
2019-03-26T05:53:09.606Z,101130.21
2019-03-26T05:55:39.591Z,101034.18
2019-03-26T05:58:09.516Z,101138.74
2019-03-26T06:00:39.547Z,101140.45
2019-03-26T06:03:09.426Z,101144.32
2019-03-26T06:05:39.481Z,101154.25
2019-03-26T06:08:09.359Z,101141.11
2019-03-26T06:10:39.658Z,101148.89
2019-03-26T06:13:09.581Z,101143.66
2019-03-26T06:15:39.958Z,101147.06
2019-03-26T06:18:09.931Z,101144.78
2019-03-26T06:23:29.138Z,101148.64
2019-03-26T06:25:59.087Z,101162.06
2019-03-26T06:28:48.008Z,101158.98
2019-03-26T06:31:17.914Z,101157.20
2019-03-26T06:33:47.842Z,101157.95
2019-03-26T06:36:36.493Z,101157.05
2019-03-26T06:39:08.567Z,101173.95
2019-03-26T06:41:38.571Z,101172.55
2019-03-26T06:44:08.488Z,101179.06
2019-03-26T06:46:38.555Z,101189.46
2019-03-26T06:49:08.427Z,101179.00
2019-03-26T06:51:38.495Z,101172.86
2019-03-26T06:54:08.443Z,101170.14
2019-03-26T06:56:38.368Z,101170.48
2019-03-26T06:59:08.424Z,101160.88
2019-03-26T07:01:38.316Z,101166.95
2019-03-26T07:04:08.300Z,101168.30
2019-03-26T07:06:38.330Z,101179.87
2019-03-26T07:09:09.006Z,101179.73
2019-03-26T07:11:38.867Z,101171.81
2019-03-26T07:14:09.018Z,101118.50
2019-03-26T07:16:38.888Z,101173.34
2019-03-26T07:19:08.997Z,101181.94
2019-03-26T07:21:49.113Z,101166.16
2019-03-26T07:24:10.553Z,101168.63
2019-03-26T07:26:40.562Z,101178.05
2019-03-26T07:29:10.498Z,101190.20
2019-03-26T07:34:30.154Z,101176.52
2019-03-26T07:37:00.073Z,101178.16
2019-03-26T07:39:32.937Z,101175.83
2019-03-26T07:42:03.305Z,101180.08
2019-03-26T07:44:33.911Z,101198.70
2019-03-26T07:47:04.450Z,101144.44
2019-03-26T07:49:34.372Z,101220.41
2019-03-26T07:52:04.628Z,101228.19
2019-03-26T07:54:34.477Z,101228.98
2019-03-26T07:57:04.791Z,101230.19
2019-03-26T07:59:34.817Z,101131.09
2019-03-26T08:02:04.854Z,101238.85
2019-03-26T08:04:34.967Z,101242.71
2019-03-26T08:07:04.866Z,101244.05
2019-03-26T08:09:35.505Z,101251.31
2019-03-26T08:12:05.687Z,101251.12
2019-03-26T08:14:36.056Z,101258.95
2019-03-26T08:17:06.157Z,101263.28
2019-03-26T08:19:36.427Z,101279.92
2019-03-26T08:22:06.472Z,101266.99
2019-03-26T08:24:36.810Z,101275.10
2019-03-26T08:27:06.884Z,101288.94
2019-03-26T08:29:37.454Z,101271.66
2019-03-26T08:32:07.582Z,101269.11
2019-03-26T08:34:37.472Z,101275.43
2019-03-26T08:37:07.875Z,101290.69
2019-03-26T08:39:37.833Z,101282.73
2019-03-26T08:42:07.784Z,101282.23
2019-03-26T08:44:37.717Z,101294.95
2019-03-26T08:47:07.896Z,101307.23
2019-03-26T08:49:37.823Z,101302.94
2019-03-26T08:52:08.284Z,101301.91
2019-03-26T08:54:38.268Z,101298.89
2019-03-26T08:57:08.241Z,101311.77
2019-03-26T08:59:38.509Z,101315.63
2019-03-26T09:02:08.477Z,101323.86
2019-03-26T09:04:38.669Z,101306.50
2019-03-26T09:07:11.038Z,101311.19
2019-03-26T09:09:40.363Z,101312.03
2019-03-26T09:12:10.329Z,101252.52
2019-03-26T09:14:40.809Z,101324.47
2019-03-26T09:17:11.499Z,101329.38
2019-03-26T09:19:41.900Z,101332.84
2019-03-26T09:22:12.181Z,101345.05
2019-03-26T09:24:42.100Z,101280.64
2019-03-26T09:27:12.426Z,101322.16
2019-03-26T09:29:42.376Z,101353.30
2019-03-26T09:32:12.610Z,101346.02
2019-03-26T09:34:42.583Z,101283.93
2019-03-26T09:37:12.717Z,101347.95
2019-03-26T09:40:01.404Z,101345.50
2019-03-26T09:42:31.415Z,101352.77
2019-03-26T09:45:01.423Z,101355.36
2019-03-26T09:47:32.129Z,101365.56
2019-03-26T09:50:02.086Z,101379.58
2019-03-26T09:52:32.505Z,101368.50
2019-03-26T09:55:02.438Z,101303.54
2019-03-26T10:00:29.400Z,101389.57
2019-03-26T10:03:19.732Z,101380.06
2019-03-26T10:05:49.854Z,101384.03
2019-03-26T10:08:19.910Z,101370.47
2019-03-26T10:10:49.820Z,101369.41
2019-03-26T10:16:29.704Z,101367.41
2019-03-26T10:18:59.818Z,101364.64
2019-03-26T10:24:05.740Z,101363.38
2019-03-26T10:26:35.840Z,101355.31
2019-03-26T10:29:23.777Z,101259.55
2019-03-26T10:34:36.471Z,101359.84
2019-03-26T10:37:05.654Z,101368.00
2019-03-26T10:39:35.619Z,101356.73
2019-03-26T10:42:06.991Z,101365.84
2019-03-26T10:44:36.965Z,101364.92
2019-03-26T10:47:07.090Z,101361.70
2019-03-26T10:49:37.068Z,101382.22
2019-03-26T10:52:14.291Z,101383.63
2019-03-26T10:54:44.660Z,101389.13
2019-03-26T10:57:14.633Z,101389.23
2019-03-26T10:59:44.618Z,101386.03
2019-03-26T11:02:14.587Z,101363.53
2019-03-26T11:04:44.608Z,101380.25
2019-03-26T11:07:14.857Z,101382.69
2019-03-26T11:09:44.862Z,101386.55
2019-03-26T11:12:15.134Z,101384.98
2019-03-26T11:14:45.135Z,101389.95
2019-03-26T11:17:15.516Z,101389.14
2019-03-26T11:19:46.501Z,101327.38
2019-03-26T11:22:16.903Z,101398.55
2019-03-26T11:24:47.107Z,101403.11
2019-03-26T11:27:17.040Z,101390.31
2019-03-26T11:29:47.289Z,101390.70
2019-03-26T11:32:17.209Z,101424.20
2019-03-26T11:34:47.555Z,101398.38
2019-03-26T11:37:17.567Z,101359.02
2019-03-26T11:39:47.747Z,101406.73
2019-03-26T11:42:17.705Z,101416.56
2019-03-26T11:44:47.700Z,101411.89
2019-03-26T11:47:17.672Z,101313.21
2019-03-26T11:49:47.659Z,101424.65
2019-03-26T11:52:17.604Z,101419.05
2019-03-26T11:54:47.579Z,101432.18
2019-03-26T11:57:30.520Z,101435.60
2019-03-26T11:59:49.475Z,101439.64
2019-03-26T12:02:19.795Z,101425.68
2019-03-26T12:04:49.676Z,101421.31
2019-03-26T12:07:19.589Z,101414.73
2019-03-26T12:09:49.534Z,101391.61
2019-03-26T12:12:19.686Z,101436.75
2019-03-26T12:14:49.807Z,101392.26
2019-03-26T12:17:19.911Z,101428.39
2019-03-26T12:19:50.296Z,101438.83
2019-03-26T12:22:20.219Z,101375.23
2019-03-26T12:24:50.457Z,101449.04
2019-03-26T12:27:20.380Z,101388.67
2019-03-26T12:29:50.368Z,101448.81
2019-03-26T12:35:28.913Z,101447.53
2019-03-26T12:37:59.041Z,101430.10
2019-03-26T12:40:28.919Z,101453.62
2019-03-26T12:42:58.929Z,101465.10
2019-03-26T12:45:28.984Z,101451.09
2019-03-26T12:47:59.015Z,101446.62
2019-03-26T12:50:31.960Z,101460.06
2019-03-26T12:53:00.778Z,101460.06
2019-03-26T12:55:30.667Z,101451.77
2019-03-26T12:58:00.809Z,101456.92
2019-03-26T13:00:49.492Z,101456.42
2019-03-26T13:03:19.414Z,101462.59
2019-03-26T13:05:49.323Z,101463.27
2019-03-26T13:08:19.802Z,101456.64
2019-03-26T13:10:53.783Z,101448.83
2019-03-26T13:13:21.708Z,101450.26
2019-03-26T13:15:51.634Z,101448.12
2019-03-26T13:18:21.488Z,101448.17
2019-03-26T13:20:51.424Z,101451.37
2019-03-26T13:23:21.293Z,101450.52
2019-03-26T13:25:51.213Z,101454.36
2019-03-26T13:28:21.177Z,101469.55
2019-03-26T13:30:51.521Z,101466.12
2019-03-26T13:33:21.469Z,101462.97
2019-03-26T13:41:22.970Z,101466.14
2019-03-26T13:43:53.210Z,101462.14
2019-03-26T13:46:42.043Z,101472.38
2019-03-26T13:49:11.993Z,101472.38
2019-03-26T13:54:31.016Z,101477.06
2019-03-26T13:57:19.783Z,101483.20
2019-03-26T13:59:49.705Z,101483.20
2019-03-26T14:02:19.743Z,101492.17
2019-03-26T14:04:49.677Z,101485.74
2019-03-26T14:07:19.657Z,101486.38
2019-03-26T14:10:00.055Z,101490.02
2019-03-26T14:12:30.160Z,101490.02
2019-03-26T14:15:00.025Z,101490.95
2019-03-26T14:17:29.917Z,101493.48
2019-03-26T14:20:18.649Z,101504.96
2019-03-26T14:22:48.561Z,101504.96
2019-03-26T14:25:18.624Z,101497.52
2019-03-26T14:27:48.498Z,101510.75
2019-03-26T14:30:38.553Z,101499.09
2019-03-26T14:33:18.953Z,101488.83
2019-03-26T14:35:49.074Z,101488.83
2019-03-26T14:38:19.039Z,101502.06
2019-03-26T14:41:07.948Z,101500.12
2019-03-26T14:43:38.448Z,101500.12
2019-03-26T14:46:08.451Z,101500.84
2019-03-26T14:48:38.679Z,101507.41
2019-03-26T14:51:19.207Z,101504.30
2019-03-26T14:53:49.293Z,101504.30
2019-03-26T14:56:19.241Z,101515.91
2019-03-26T14:58:49.714Z,101512.48
2019-03-26T15:01:19.637Z,101508.27
2019-03-26T15:03:49.779Z,101512.61
2019-03-26T15:06:19.674Z,101517.11
2019-03-26T15:08:49.742Z,101513.21
2019-03-26T15:11:19.648Z,101516.32
2019-03-26T15:13:49.791Z,101515.33
2019-03-26T15:16:19.655Z,101513.27
2019-03-26T15:18:49.565Z,101515.24
2019-03-26T15:21:19.468Z,101524.67
2019-03-26T15:24:08.130Z,101515.91
2019-03-26T15:26:38.116Z,101512.27
2019-03-26T15:29:08.112Z,101520.25
2019-03-26T15:31:37.987Z,101514.78
2019-03-26T15:34:08.291Z,101531.68
2019-03-26T15:36:38.211Z,101537.11
2019-03-26T15:39:08.828Z,101529.14
2019-03-26T15:41:38.722Z,101534.71
2019-03-26T15:44:09.339Z,101532.75
2019-03-26T15:46:39.276Z,101508.28
2019-03-26T15:49:09.343Z,101538.73
2019-03-26T15:51:39.413Z,101542.45
2019-03-26T15:54:09.382Z,101546.67
2019-03-26T15:56:39.511Z,101519.36
2019-03-26T15:59:09.429Z,101556.59
2019-03-26T16:01:39.539Z,101551.50
2019-03-26T16:04:09.466Z,101559.06
2019-03-26T16:06:39.598Z,101551.81
2019-03-26T16:09:28.514Z,101556.43
2019-03-26T16:11:58.462Z,101556.43
2019-03-26T16:14:28.601Z,101558.45
2019-03-26T16:16:58.534Z,101541.53
2019-03-26T16:19:32.799Z,101567.98
2019-03-26T16:22:00.442Z,101555.83
2019-03-26T16:24:49.233Z,101556.63
2019-03-26T16:27:19.152Z,101561.77
2019-03-26T16:30:07.721Z,101561.52
2019-03-26T16:32:37.733Z,101564.55
2019-03-26T16:35:08.388Z,101562.33
2019-03-26T16:37:38.556Z,101565.68
2019-03-26T16:40:08.472Z,101567.06
2019-03-26T16:42:38.665Z,101567.31
2019-03-26T16:45:09.065Z,101502.63
2019-03-26T16:47:39.966Z,101569.55
2019-03-26T16:50:10.152Z,101515.25
2019-03-26T16:52:40.211Z,101589.87
2019-03-26T16:55:10.415Z,101583.38
2019-03-26T16:57:41.947Z,101589.23
2019-03-26T17:03:08.450Z,101529.34
2019-03-26T17:05:38.595Z,101588.11
2019-03-26T17:08:08.594Z,101590.42
2019-03-26T17:10:38.668Z,101596.67
2019-03-26T17:13:08.620Z,101588.89
2019-03-26T17:15:38.797Z,101588.08
2019-03-26T17:18:08.943Z,101585.52
2019-03-26T17:20:38.866Z,101590.33
2019-03-26T17:23:09.204Z,101593.84
2019-03-26T17:25:39.176Z,101586.89
2019-03-26T17:28:09.279Z,101588.20
2019-03-26T17:30:39.188Z,101528.23
2019-03-26T17:33:09.525Z,101597.00
2019-03-26T17:35:39.424Z,101491.66
2019-03-26T17:38:09.348Z,101596.21
2019-03-26T17:40:39.352Z,101601.92
2019-03-26T17:43:09.294Z,101594.95
2019-03-26T17:45:39.650Z,101601.52
2019-03-26T17:48:09.611Z,101598.05
2019-03-26T17:50:40.694Z,101601.98
2019-03-26T17:53:10.664Z,101593.70
2019-03-26T17:55:40.902Z,101591.08
2019-03-26T17:58:11.519Z,101586.28
2019-03-26T18:01:05.538Z,101579.75
2019-03-26T18:03:35.492Z,101579.75
2019-03-26T18:06:05.787Z,101575.41
2019-03-26T18:08:35.748Z,101519.34
2019-03-26T18:11:05.817Z,101567.61
2019-03-26T18:13:35.854Z,101570.23
2019-03-26T18:16:05.913Z,101575.50
2019-03-26T18:18:36.135Z,101579.02
2019-03-26T18:21:06.111Z,101584.23
2019-03-26T18:24:15.076Z,101586.02
2019-03-26T18:26:45.068Z,101523.80
2019-03-26T18:29:15.184Z,101584.70
2019-03-26T18:31:45.155Z,101595.63
2019-03-26T18:34:15.650Z,101593.02
2019-03-26T18:36:45.672Z,101589.48
2019-03-26T18:39:15.633Z,101598.28
2019-03-26T18:41:45.618Z,101599.56
2019-03-26T18:44:15.610Z,101600.91
2019-03-26T18:46:46.107Z,101600.02
2019-03-26T18:49:16.083Z,101601.34
2019-03-26T18:51:46.670Z,101599.18
2019-03-26T18:54:16.589Z,101609.66
2019-03-26T18:56:46.601Z,101592.22
2019-03-26T18:59:16.534Z,101546.45
2019-03-26T19:01:46.526Z,101603.11
2019-03-26T19:04:16.629Z,101597.46
2019-03-26T19:06:46.866Z,101600.93
2019-03-26T19:09:18.389Z,101600.08
2019-03-26T19:11:48.481Z,101602.73
2019-03-26T19:17:31.661Z,101598.42
2019-03-26T19:20:22.100Z,101598.48
2019-03-26T19:23:31.207Z,101594.11
2019-03-26T19:26:03.783Z,101595.86
2019-03-26T19:28:34.755Z,101607.18
2019-03-26T19:31:06.327Z,101601.97
2019-03-26T19:33:37.289Z,101601.97
2019-03-26T19:36:07.510Z,101602.47
2019-03-26T19:38:37.410Z,101602.95
2019-03-26T19:41:07.592Z,101605.14
2019-03-26T19:43:37.518Z,101604.29
2019-03-26T19:46:07.722Z,101595.17
2019-03-26T19:48:37.626Z,101597.38
2019-03-26T19:51:07.638Z,101569.70
2019-03-26T19:53:37.576Z,101588.73
2019-03-26T19:56:07.741Z,101585.70
2019-03-26T19:58:37.721Z,101587.48
2019-03-26T20:01:08.125Z,101598.42
2019-03-26T20:03:38.404Z,101598.01
2019-03-26T20:06:13.859Z,101594.48
2019-03-26T20:08:40.540Z,101596.27
2019-03-26T20:11:10.456Z,101598.91
2019-03-26T20:13:40.695Z,101594.10
2019-03-26T20:16:10.756Z,101596.34
2019-03-26T20:18:40.670Z,101598.96
2019-03-26T20:21:10.676Z,101593.75
2019-03-26T20:23:40.673Z,101592.02
2019-03-26T20:26:10.866Z,101576.98
2019-03-26T20:28:40.930Z,101597.34
2019-03-26T20:31:11.331Z,101581.78
2019-03-26T20:33:42.605Z,101597.42
2019-03-26T20:36:13.122Z,101595.23
2019-03-26T20:38:43.158Z,101586.14
2019-03-26T20:41:13.048Z,101587.94
2019-03-26T20:43:43.356Z,101583.63
2019-03-26T20:46:13.250Z,101584.55
2019-03-26T20:48:43.343Z,101593.72
2019-03-26T20:51:13.218Z,101588.04
2019-03-26T20:53:44.353Z,101584.55
2019-03-26T20:56:14.238Z,101523.57
2019-03-26T20:58:45.194Z,101581.84
2019-03-26T21:01:15.275Z,101583.94
2019-03-26T21:03:45.140Z,101577.26
2019-03-26T21:06:15.137Z,101578.92
2019-03-26T21:08:45.046Z,101579.31
2019-03-26T21:11:14.999Z,101579.26
2019-03-26T21:13:50.596Z,101564.95
2019-03-26T21:16:35.246Z,101575.28
2019-03-26T21:19:05.511Z,101574.31
2019-03-26T21:21:35.391Z,101515.56
2019-03-26T21:24:05.542Z,101576.88
2019-03-26T21:26:35.890Z,101561.22
2019-03-26T21:29:06.174Z,101579.39
2019-03-26T21:31:36.897Z,101585.05
2019-03-26T21:34:06.771Z,101575.46
2019-03-26T21:36:36.973Z,101574.97
2019-03-26T21:39:07.506Z,101565.33
2019-03-26T21:41:38.569Z,101565.33
2019-03-26T21:44:08.591Z,101563.61
2019-03-26T21:46:38.510Z,101561.05
2019-03-26T21:49:08.821Z,101561.92
2019-03-26T21:51:38.820Z,101554.96
2019-03-26T21:54:09.176Z,101556.33
2019-03-26T21:56:39.086Z,101555.07
2019-03-26T22:01:45.684Z,101550.79
2019-03-26T22:04:15.592Z,101555.19
2019-03-26T22:06:45.666Z,101553.52
2019-03-26T22:09:15.642Z,101497.39
2019-03-26T22:11:50.124Z,101547.43
2019-03-26T22:14:18.705Z,101536.19
2019-03-26T22:16:48.829Z,101543.95
2019-03-26T22:19:28.571Z,101540.42
2019-03-26T22:21:50.575Z,101538.20
2019-03-26T22:24:20.541Z,101543.89
2019-03-26T22:26:50.598Z,101528.25
2019-03-26T22:29:20.541Z,101523.74
2019-03-26T22:31:50.595Z,101527.70
2019-03-26T22:34:20.597Z,101528.98
2019-03-26T22:36:50.968Z,101533.30
2019-03-26T22:39:20.884Z,101520.63
2019-03-26T22:41:51.418Z,101533.53
2019-03-26T22:44:31.295Z,101468.20
2019-03-26T22:46:52.992Z,101535.45
2019-03-26T22:49:23.239Z,101512.51
2019-03-26T22:51:53.185Z,101539.11
2019-03-26T22:54:23.205Z,101536.87
2019-03-26T22:56:53.228Z,101535.91
2019-03-26T22:59:23.337Z,101539.30
2019-03-26T23:01:53.331Z,101481.41
2019-03-26T23:04:23.260Z,101533.06
2019-03-26T23:06:55.275Z,101473.41
2019-03-26T23:09:25.280Z,101528.59
2019-03-26T23:11:55.678Z,101527.63
2019-03-26T23:14:25.590Z,101535.43
2019-03-26T23:16:55.977Z,101539.70
2019-03-26T23:19:25.979Z,101544.48
2019-03-26T23:21:56.212Z,101548.35
2019-03-26T23:24:26.094Z,101539.50
2019-03-26T23:26:56.214Z,101539.44
2019-03-26T23:29:44.974Z,101526.08
2019-03-26T23:34:35.447Z,101531.80
2019-03-26T23:37:05.601Z,101523.56
2019-03-26T23:39:35.493Z,101457.98
2019-03-26T23:42:05.769Z,101530.89
2019-03-26T23:44:35.654Z,101469.98
2019-03-26T23:47:05.587Z,101532.94
2019-03-26T23:49:35.551Z,101521.67
2019-03-26T23:52:05.480Z,101531.16
2019-03-26T23:54:35.537Z,101526.75
2019-03-26T23:57:05.458Z,101528.47
2019-03-26T23:59:35.774Z,101528.43
